Molonglo, Australia

1:10 PM AEST on April 22, 2018 (GMT +1000)
Narrabundah, Canberra, ACT | | Change Station

Elev 2129 ft 35.33 °S, 149.15 °E | Updated 27 seconds ago

Overcast
Overcast
69.4 °F
Feels Like 69.4 °F
N
0.0
Wind Variable Wind from SW
Gusts 0.0 mph

Today
High -- | Low -- °F
--% Chance of Precip.
Yesterday
High -- | Low -- °F
Precip. -- in
Pressure 30.18 in
Visibility 6.2 miles
Clouds Scattered Clouds 3000 ft
Scattered Clouds 6000 ft
Mostly Cloudy 12000 ft
Dew Point 58 °F
Humidity 68%
Rainfall 0.00 in
Snow Depth Not available.
6:32 AM 5:30 PM
Waxing Crescent, 41% visible
METAR YSCB 220300Z 01006KT 9999 -SHRA SCT030 SCT060 BKN120 16/13 Q1022 INTER 0400/0600 4000 SHRA SCT020
Pressure 30.18 in
Visibility 6.2 miles
Clouds Scattered Clouds 3000 ft
Scattered Clouds 6000 ft
Mostly Cloudy 12000 ft
Dew Point 58 °F
Humidity 68%
Rainfall 0.00 in
Snow Depth Not available.
6:32 AM 5:30 PM
Waxing Crescent, 41% visible
METAR YSCB 220300Z 01006KT 9999 -SHRA SCT030 SCT060 BKN120 16/13 Q1022 INTER 0400/0600 4000 SHRA SCT020

Get Severe Weather Alerts

Thanks for signing up!

Be on the lookout for a verification email in your inbox.

You'll start receiving the daily forecast at 6 AM.

×

10-Day Weather Forecast

×

Almanac

Astronomy

Apr. 22, 2018 Rise Set
Actual Time
Civil Twilight
Nautical Twilight
Astronomical Twilight
Moon
Length of Visible Light
Length of Day
Tomorrow will be .
, % of the Moon is Illuminated

Today's Extremes

Country Highs Country Lows

Community

WunderPhotos

Category 6

Welcome to Category 6. This is the collective home for Weather Underground's featured writeups by Dr. Jeff Masters (right), Bob Henson (left), Chris Burt, and other regular contributors.

Nearby

Air Quality

  Air Quality AQ Index Pollutant
Not available.

Snow Depth

Station Depth Elevation

Earthquake Activity

City Distance Mag. Time & Date
Minimum magnitude displayed is 2.5.

Coastal Water Temperatures

Place Temperature

Stations

Nearby Weather Stations

Station Location Temp. Windchill Dew Point Humidity Wind Precip. Elev Updated Type